Time;durP1;ratioP1;P1;durP2;ratioP2;P2;SDS_P1;SDS_P2;PMS_P1;PMS_P2;Temp;Humidity;BMP_temperature;BMP_pressure;BME280_temperature;BME280_humidity;BME280_pressure;Samples;Min_cycle;Max_cycle;Signal;HPM_P1;HPM_P2
2023/06/23 00:00:13;;;;;;;0.63;0.60;;;19.90;99.90;;;;;;5066832;28;20710;-59
2023/06/23 00:02:41;;;;;;;0.50;0.50;;;19.80;99.90;;;;;;5068447;28;20225;-60
2023/06/23 00:05:09;;;;;;;0.87;0.50;;;19.70;99.90;;;;;;5068677;28;20223;-60
2023/06/23 00:07:36;;;;;;;0.57;0.57;;;19.60;99.90;;;;;;5065630;28;20687;-60
2023/06/23 00:10:05;;;;;;;0.57;0.57;;;19.60;99.90;;;;;;5069533;28;20197;-59
2023/06/23 00:12:35;;;;;;;0.50;0.50;;;19.70;99.90;;;;;;5061945;28;20789;-60
2023/06/23 00:15:03;;;;;;;0.70;0.53;;;19.60;99.90;;;;;;5073962;28;20298;-59
2023/06/23 00:17:30;;;;;;;1.87;0.80;;;19.40;99.90;;;;;;5069286;28;20294;-59
2023/06/23 00:19:58;;;;;;;0.50;0.50;;;19.30;99.90;;;;;;5067020;28;20205;-59
2023/06/23 00:22:28;;;;;;;1.60;0.60;;;19.30;99.90;;;;;;5066869;28;20910;-59
2023/06/23 00:24:55;;;;;;;2.30;1.13;;;19.30;99.90;;;;;;5066232;28;20586;-59
2023/06/23 00:27:22;;;;;;;0.60;0.60;;;19.20;99.90;;;;;;5079559;22;20245;-55
2023/06/23 00:29:49;;;;;;;1.03;0.63;;;19.00;99.90;;;;;;5048539;28;20724;-55
2023/06/23 00:32:16;;;;;;;0.60;0.50;;;18.90;99.90;;;;;;5050200;28;20236;-54
2023/06/23 00:34:44;;;;;;;1.00;0.43;;;19.00;99.90;;;;;;5050395;28;20213;-55
2023/06/23 00:37:12;;;;;;;2.47;0.67;;;19.10;99.90;;;;;;5043654;28;20327;-55
2023/06/23 00:39:39;;;;;;;3.37;0.63;;;19.10;99.90;;;;;;5048934;28;20202;-54
2023/06/23 00:42:06;;;;;;;0.40;0.40;;;19.10;99.90;;;;;;5051117;28;20197;-55
2023/06/23 00:44:34;;;;;;;0.70;0.70;;;19.10;99.90;;;;;;5047621;28;20208;-55
2023/06/23 00:47:02;;;;;;;3.57;0.93;;;19.10;99.90;;;;;;5050498;28;20218;-54
2023/06/23 00:49:29;;;;;;;3.90;0.80;;;19.00;99.90;;;;;;5048152;28;20233;-54
2023/06/23 00:51:59;;;;;;;1.67;0.80;;;19.00;99.90;;;;;;5049526;28;20202;-55
2023/06/23 00:54:28;;;;;;;0.93;0.60;;;19.00;99.90;;;;;;5047497;28;20740;-55
2023/06/23 00:56:58;;;;;;;4.87;0.80;;;18.90;99.90;;;;;;5048639;28;20264;-55
2023/06/23 00:59:27;;;;;;;3.50;0.93;;;18.90;99.90;;;;;;5049753;28;20206;-55
2023/06/23 01:01:54;;;;;;;2.40;0.70;;;18.80;99.90;;;;;;5049751;28;20197;-55
2023/06/23 01:04:22;;;;;;;1.33;1.10;;;18.80;99.90;;;;;;5049910;28;20206;-55
2023/06/23 01:07:02;;;;;;;2.00;0.87;;;18.80;99.90;;;;;;5050134;28;20707;-55
2023/06/23 01:09:37;;;;;;;3.63;1.07;;;18.70;99.90;;;;;;5046151;28;20670;-55
2023/06/23 01:12:08;;;;;;;2.20;0.70;;;18.70;99.90;;;;;;5046635;28;20274;-54
2023/06/23 01:14:41;;;;;;;1.43;1.33;;;18.70;99.90;;;;;;5045037;28;20209;-54
2023/06/23 01:17:15;;;;;;;1.60;0.63;;;18.70;99.90;;;;;;5043162;28;20222;-54
2023/06/23 01:19:53;;;;;;;4.47;1.03;;;18.70;99.90;;;;;;5049026;28;20564;-55
2023/06/23 01:22:31;;;;;;;3.70;0.90;;;18.60;99.90;;;;;;5043633;28;20206;-54
2023/06/23 01:25:12;;;;;;;1.50;1.33;;;18.60;99.90;;;;;;5046359;28;20196;-55
2023/06/23 01:28:00;;;;;;;0.90;0.70;;;18.40;99.90;;;;;;5051084;28;20253;-55
2023/06/23 01:30:33;;;;;;;2.23;1.17;;;18.50;99.90;;;;;;5051281;28;20275;-54
2023/06/23 01:33:08;;;;;;;2.30;0.93;;;18.30;99.90;;;;;;5051053;28;20197;-54
2023/06/23 01:35:41;;;;;;;3.30;1.27;;;18.30;99.90;;;;;;5052232;28;20197;-54
2023/06/23 01:38:12;;;;;;;3.17;1.77;;;18.30;99.90;;;;;;5049712;28;20283;-55
2023/06/23 01:40:42;;;;;;;4.57;1.43;;;18.30;99.90;;;;;;5051461;28;20206;-54
2023/06/23 01:43:11;;;;;;;2.73;1.17;;;18.20;99.90;;;;;;5050934;28;20202;-55
2023/06/23 01:45:40;;;;;;;8.40;1.20;;;18.10;99.90;;;;;;5051035;28;20645;-54
2023/06/23 01:48:11;;;;;;;2.07;1.77;;;18.10;99.90;;;;;;5050537;28;20217;-54
2023/06/23 01:50:40;;;;;;;1.30;1.20;;;18.10;99.90;;;;;;5051384;28;20198;-54
2023/06/23 01:53:09;;;;;;;2.10;1.37;;;18.00;99.90;;;;;;5048871;28;20206;-54
2023/06/23 01:55:40;;;;;;;3.00;2.43;;;18.00;99.90;;;;;;5051096;28;20198;-55
2023/06/23 01:58:08;;;;;;;1.53;0.93;;;17.90;99.90;;;;;;5050150;28;20230;-54
2023/06/23 02:00:36;;;;;;;1.13;1.10;;;18.00;99.90;;;;;;5049203;28;20217;-54
2023/06/23 02:03:06;;;;;;;1.50;1.40;;;17.90;99.90;;;;;;5050260;28;20198;-54
2023/06/23 02:05:34;;;;;;;3.93;2.00;;;17.90;99.90;;;;;;5050987;28;20198;-54
2023/06/23 02:08:02;;;;;;;3.43;1.87;;;18.00;99.90;;;;;;5051417;28;20272;-54
2023/06/23 02:10:30;;;;;;;3.10;2.90;;;17.90;99.90;;;;;;5053293;28;20206;-54
2023/06/23 02:12:58;;;;;;;3.37;1.90;;;17.90;99.90;;;;;;5053434;28;20232;-55
2023/06/23 02:15:27;;;;;;;1.87;1.77;;;17.90;99.90;;;;;;5054540;28;20267;-55
2023/06/23 02:17:56;;;;;;;2.07;1.97;;;17.90;99.90;;;;;;5054536;28;20230;-54
2023/06/23 02:20:26;;;;;;;3.20;2.10;;;17.90;99.90;;;;;;5054910;28;20210;-54
2023/06/23 02:22:54;;;;;;;4.90;1.90;;;17.90;99.90;;;;;;5063582;28;20577;-54
2023/06/23 02:25:23;;;;;;;2.20;1.63;;;17.90;99.90;;;;;;5054148;28;20198;-54
2023/06/23 02:27:51;;;;;;;2.37;2.20;;;18.00;99.90;;;;;;5054301;28;20276;-55
2023/06/23 02:30:19;;;;;;;2.43;2.33;;;18.00;99.90;;;;;;5053830;28;20201;-54
2023/06/23 02:32:47;;;;;;;1.83;1.73;;;18.00;99.90;;;;;;5056751;28;20226;-54
2023/06/23 02:35:14;;;;;;;5.43;1.80;;;18.00;99.90;;;;;;5053638;28;20240;-55
2023/06/23 02:37:49;;;;;;;3.17;2.43;;;18.00;99.90;;;;;;5053617;28;20224;-54
2023/06/23 02:40:19;;;;;;;1.43;1.33;;;17.90;99.90;;;;;;5053336;28;20205;-55
2023/06/23 02:42:50;;;;;;;1.53;1.47;;;17.90;99.90;;;;;;5055629;28;20206;-54
2023/06/23 02:45:20;;;;;;;1.60;1.40;;;17.90;99.90;;;;;;5053951;28;20202;-55
2023/06/23 02:47:50;;;;;;;6.13;2.47;;;17.90;99.90;;;;;;5052927;28;20218;-54
2023/06/23 02:50:19;;;;;;;2.37;1.60;;;17.90;99.90;;;;;;5045980;28;20248;-55
2023/06/23 02:52:49;;;;;;;1.33;1.23;;;17.90;99.90;;;;;;5050413;28;20243;-55
2023/06/23 02:55:20;;;;;;;1.23;1.17;;;17.90;99.90;;;;;;5053893;28;20629;-54
2023/06/23 02:57:51;;;;;;;1.00;0.90;;;18.00;99.90;;;;;;5053702;28;20222;-54
2023/06/23 03:00:23;;;;;;;1.60;1.13;;;17.90;99.90;;;;;;5051814;28;20206;-54
2023/06/23 03:02:53;;;;;;;1.70;1.60;;;17.90;99.90;;;;;;5050113;28;20236;-55
2023/06/23 03:05:22;;;;;;;3.70;1.67;;;17.90;99.90;;;;;;5052003;28;20201;-55
2023/06/23 03:07:51;;;;;;;1.60;1.50;;;17.80;99.90;;;;;;5053579;28;20217;-54
2023/06/23 03:10:19;;;;;;;3.93;1.23;;;17.90;99.90;;;;;;5052656;28;20198;-54
2023/06/23 03:12:46;;;;;;;2.60;1.83;;;17.90;99.90;;;;;;5055739;28;20209;-54
2023/06/23 03:15:16;;;;;;;1.57;1.40;;;17.90;99.90;;;;;;5051851;28;20205;-54
2023/06/23 03:17:43;;;;;;;2.10;1.50;;;17.90;99.90;;;;;;5053380;28;20226;-54
2023/06/23 03:20:15;;;;;;;2.53;1.80;;;18.00;99.90;;;;;;5057794;28;20733;-54
2023/06/23 03:22:46;;;;;;;4.60;1.60;;;17.80;99.90;;;;;;5053084;28;20198;-54
2023/06/23 03:25:18;;;;;;;5.33;2.90;;;17.90;99.90;;;;;;5053518;28;20263;-55
2023/06/23 03:27:46;;;;;;;1.73;1.63;;;17.80;99.90;;;;;;5052151;28;20283;-54
2023/06/23 03:30:19;;;;;;;5.07;2.37;;;17.80;99.90;;;;;;5060034;28;20324;-55
2023/06/23 03:32:50;;;;;;;9.47;1.80;;;17.70;99.90;;;;;;5053009;28;20202;-54
2023/06/23 03:35:21;;;;;;;3.87;2.13;;;17.70;99.90;;;;;;5053130;28;20205;-54
2023/06/23 03:37:51;;;;;;;1.97;1.40;;;17.70;99.90;;;;;;5053020;28;20279;-54
2023/06/23 03:40:22;;;;;;;6.43;2.40;;;17.70;99.90;;;;;;5049965;28;20263;-54
2023/06/23 03:42:55;;;;;;;1.83;1.73;;;17.60;99.90;;;;;;5052523;28;20193;-54
2023/06/23 03:45:25;;;;;;;2.50;1.87;;;17.60;99.90;;;;;;5052803;28;20668;-54
2023/06/23 03:47:59;;;;;;;7.10;1.97;;;17.60;99.90;;;;;;5052269;28;20707;-54
2023/06/23 03:50:29;;;;;;;2.57;2.10;;;17.70;99.90;;;;;;5051310;28;20202;-54
2023/06/23 03:52:58;;;;;;;3.53;2.40;;;17.70;99.90;;;;;;5050913;28;20204;-55
2023/06/23 03:55:28;;;;;;;2.83;1.90;;;17.70;99.90;;;;;;5052724;28;20209;-54
2023/06/23 03:57:57;;;;;;;1.97;1.57;;;17.80;99.90;;;;;;5052382;28;20711;-55
2023/06/23 04:00:25;;;;;;;2.87;2.03;;;17.80;99.90;;;;;;5057526;28;20205;-54
2023/06/23 04:02:54;;;;;;;2.30;1.50;;;17.90;99.90;;;;;;5050993;28;20331;-54
2023/06/23 04:05:22;;;;;;;2.27;1.80;;;17.80;99.90;;;;;;5052545;28;20197;-54
2023/06/23 04:07:50;;;;;;;3.90;1.80;;;17.80;99.90;;;;;;5052637;28;20218;-54
2023/06/23 04:10:21;;;;;;;2.07;1.87;;;17.80;99.90;;;;;;5057172;28;20202;-54
2023/06/23 04:12:52;;;;;;;3.63;2.00;;;17.80;99.90;;;;;;5051237;28;20205;-54
2023/06/23 04:15:23;;;;;;;2.53;2.33;;;17.90;99.90;;;;;;5052212;28;20255;-55
2023/06/23 04:17:53;;;;;;;4.23;1.53;;;17.80;99.90;;;;;;5052051;28;20287;-55
2023/06/23 04:20:21;;;;;;;1.93;1.83;;;17.80;99.90;;;;;;5056641;28;20626;-55
2023/06/23 04:22:50;;;;;;;3.27;2.00;;;17.80;99.90;;;;;;5051865;28;20251;-54
2023/06/23 04:25:20;;;;;;;3.50;2.77;;;17.80;99.90;;;;;;5051346;28;20255;-54
2023/06/23 04:27:51;;;;;;;3.63;2.23;;;17.80;99.90;;;;;;5051751;28;20225;-55
2023/06/23 04:30:20;;;;;;;2.00;1.60;;;17.90;99.90;;;;;;5051773;28;20273;-54
2023/06/23 04:32:47;;;;;;;1.70;1.60;;;17.80;99.90;;;;;;5049316;28;20198;-55
2023/06/23 04:35:14;;;;;;;2.30;1.93;;;17.80;99.90;;;;;;5051987;28;20194;-54
2023/06/23 04:37:45;;;;;;;2.03;1.93;;;17.90;99.90;;;;;;5051738;28;20757;-54
2023/06/23 04:40:22;;;;;;;2.20;2.10;;;17.90;99.90;;;;;;5055634;28;20259;-54
2023/06/23 04:42:54;;;;;;;2.33;2.20;;;17.90;99.90;;;;;;5051386;28;20717;-54
2023/06/23 04:45:26;;;;;;;2.50;2.10;;;18.00;99.90;;;;;;5052020;28;20640;-54
2023/06/23 04:47:55;;;;;;;1.90;1.80;;;17.90;99.90;;;;;;5050849;28;20217;-54
2023/06/23 04:50:26;;;;;;;2.20;2.10;;;17.90;99.90;;;;;;5050062;28;20279;-54
2023/06/23 04:52:56;;;;;;;1.70;1.60;;;17.90;99.90;;;;;;5051418;28;20721;-55
2023/06/23 04:55:30;;;;;;;1.97;1.77;;;17.90;99.90;;;;;;5051932;28;20275;-54
2023/06/23 04:58:00;;;;;;;1.87;1.30;;;17.90;99.90;;;;;;5050435;28;20221;-54
2023/06/23 05:00:28;;;;;;;3.87;1.73;;;18.00;99.90;;;;;;5051240;28;20206;-54
2023/06/23 05:02:57;;;;;;;1.63;1.50;;;17.90;99.90;;;;;;5051354;28;20263;-54
2023/06/23 05:05:26;;;;;;;1.53;1.43;;;18.00;99.90;;;;;;5049004;28;20220;-54
2023/06/23 05:07:54;;;;;;;1.90;1.53;;;18.00;99.90;;;;;;5050783;28;20272;-54
2023/06/23 05:10:24;;;;;;;1.73;1.63;;;18.00;99.90;;;;;;5051311;28;20663;-54
2023/06/23 05:12:53;;;;;;;2.40;1.77;;;18.00;99.90;;;;;;5051264;28;20224;-54
2023/06/23 05:15:22;;;;;;;1.87;1.77;;;18.00;99.90;;;;;;5051566;28;20247;-54
2023/06/23 05:17:52;;;;;;;2.20;1.70;;;17.90;99.90;;;;;;5051114;28;20226;-55
2023/06/23 05:20:21;;;;;;;2.43;2.30;;;18.00;99.90;;;;;;5044756;28;20198;-54
2023/06/23 05:22:51;;;;;;;2.57;2.37;;;18.00;99.90;;;;;;5039107;28;20193;-54
2023/06/23 05:25:19;;;;;;;4.37;3.10;;;18.00;99.90;;;;;;5046752;28;20574;-54
2023/06/23 05:27:49;;;;;;;4.83;4.43;;;18.00;99.90;;;;;;5031358;28;20230;-55
2023/06/23 05:30:19;;;;;;;5.50;5.03;;;18.00;99.90;;;;;;5032106;28;20206;-55
2023/06/23 05:32:50;;;;;;;5.07;3.97;;;17.90;99.90;;;;;;5050428;28;20263;-54
2023/06/23 05:35:17;;;;;;;4.40;4.00;;;18.00;99.90;;;;;;5047544;28;20202;-54
2023/06/23 05:37:46;;;;;;;7.40;4.20;;;18.00;99.90;;;;;;5050878;28;20225;-55
2023/06/23 05:40:15;;;;;;;5.13;3.93;;;18.10;99.90;;;;;;5047200;28;20253;-55
2023/06/23 05:42:43;;;;;;;4.00;3.53;;;18.10;99.90;;;;;;5046497;28;20202;-54
2023/06/23 05:45:11;;;;;;;3.00;2.80;;;18.10;99.90;;;;;;5054976;28;20205;-55
2023/06/23 05:47:43;;;;;;;3.70;2.97;;;18.10;99.90;;;;;;5054985;28;20230;-55
2023/06/23 05:50:20;;;;;;;5.27;3.87;;;18.20;99.90;;;;;;5054337;28;20239;-54
2023/06/23 05:52:57;;;;;;;4.53;4.10;;;18.20;99.90;;;;;;5053991;28;20201;-54
2023/06/23 05:55:27;;;;;;;2.73;2.63;;;18.20;99.90;;;;;;5053659;28;20666;-55
2023/06/23 05:57:59;;;;;;;2.87;2.57;;;18.20;99.90;;;;;;5052904;28;20226;-54
2023/06/23 06:00:31;;;;;;;1.90;1.80;;;18.20;99.90;;;;;;5054716;28;20202;-54
2023/06/23 06:03:02;;;;;;;2.73;2.57;;;18.30;99.90;;;;;;5054610;28;20205;-54
2023/06/23 06:05:33;;;;;;;3.33;2.73;;;18.40;99.90;;;;;;5054698;28;20633;-54
2023/06/23 06:08:02;;;;;;;2.37;2.17;;;18.50;99.90;;;;;;5054354;28;20229;-55
2023/06/23 06:10:31;;;;;;;4.27;3.27;;;18.60;99.90;;;;;;5054068;28;20205;-54
2023/06/23 06:13:01;;;;;;;2.73;2.53;;;18.70;99.90;;;;;;5069790;28;20243;-54
2023/06/23 06:15:29;;;;;;;4.17;3.77;;;18.80;99.90;;;;;;5056113;28;20202;-54
2023/06/23 06:17:58;;;;;;;3.40;3.20;;;18.80;99.90;;;;;;5053261;28;20746;-54
2023/06/23 06:20:27;;;;;;;5.00;3.63;;;18.80;99.90;;;;;;5053560;28;20209;-55
2023/06/23 06:22:57;;;;;;;3.03;2.93;;;18.90;99.90;;;;;;5054349;28;20198;-55
2023/06/23 06:25:26;;;;;;;3.93;3.27;;;18.90;99.90;;;;;;5051492;28;20234;-55
2023/06/23 06:27:54;;;;;;;4.27;3.73;;;19.00;99.90;;;;;;5050895;28;20229;-54
2023/06/23 06:30:23;;;;;;;3.73;3.53;;;19.10;99.90;;;;;;5047990;28;20205;-54
2023/06/23 06:32:55;;;;;;;4.43;4.13;;;19.20;99.90;;;;;;5051373;28;20260;-54
2023/06/23 06:35:23;;;;;;;4.10;3.83;;;19.30;99.90;;;;;;5051698;28;20198;-55
2023/06/23 06:37:52;;;;;;;4.87;4.47;;;19.30;99.90;;;;;;5051984;28;20222;-54
2023/06/23 06:40:24;;;;;;;4.60;4.30;;;19.40;99.90;;;;;;5052300;28;20252;-55
2023/06/23 06:42:51;;;;;;;4.57;3.33;;;19.40;99.90;;;;;;5051457;28;20214;-55
2023/06/23 06:45:18;;;;;;;2.90;2.80;;;19.50;99.90;;;;;;5051795;28;20202;-55
2023/06/23 06:47:45;;;;;;;2.87;2.67;;;19.50;99.90;;;;;;5049853;28;20271;-54
2023/06/23 06:50:15;;;;;;;4.70;4.40;;;19.60;99.90;;;;;;5053794;28;20279;-55
2023/06/23 06:52:44;;;;;;;3.80;3.60;;;19.70;99.90;;;;;;5053644;28;20790;-55
2023/06/23 06:55:17;;;;;;;4.63;4.03;;;20.00;99.90;;;;;;5053674;28;20202;-55
2023/06/23 06:57:47;;;;;;;4.20;3.87;;;20.10;99.90;;;;;;5053470;28;20229;-55
2023/06/23 07:00:17;;;;;;;4.70;4.27;;;20.20;99.90;;;;;;5053045;28;20201;-55
2023/06/23 07:02:45;;;;;;;6.37;4.43;;;20.30;99.90;;;;;;5053346;28;20714;-55
2023/06/23 07:05:13;;;;;;;4.47;3.67;;;20.30;99.90;;;;;;5052572;28;20198;-55
2023/06/23 07:07:40;;;;;;;6.03;4.57;;;20.40;99.90;;;;;;5052702;28;20267;-55
2023/06/23 07:10:08;;;;;;;4.87;4.53;;;20.50;99.90;;;;;;5051945;28;20202;-55
2023/06/23 07:12:35;;;;;;;3.90;3.60;;;20.60;99.90;;;;;;5052474;28;20249;-55
2023/06/23 07:15:04;;;;;;;4.37;4.07;;;20.70;99.90;;;;;;5052610;28;20262;-55
2023/06/23 07:17:31;;;;;;;4.67;4.37;;;20.80;99.90;;;;;;5052311;28;20214;-55
2023/06/23 07:19:58;;;;;;;5.90;5.30;;;21.00;99.90;;;;;;5050042;28;20225;-55
2023/06/23 07:22:27;;;;;;;4.50;4.20;;;21.20;99.90;;;;;;5051455;28;20252;-55
2023/06/23 07:24:55;;;;;;;5.13;4.77;;;21.40;99.90;;;;;;5046886;28;20550;-55
2023/06/23 07:27:22;;;;;;;4.40;4.20;;;21.30;99.90;;;;;;5048103;28;20229;-55
2023/06/23 07:29:50;;;;;;;4.77;4.47;;;21.50;99.90;;;;;;5052064;28;20194;-55
2023/06/23 07:32:18;;;;;;;3.90;3.70;;;21.60;99.90;;;;;;5045593;28;20750;-56
2023/06/23 07:34:45;;;;;;;5.47;5.10;;;21.70;99.90;;;;;;5048101;28;20279;-55
2023/06/23 07:37:12;;;;;;;5.93;5.40;;;21.70;99.90;;;;;;5051334;28;20225;-55
2023/06/23 07:39:39;;;;;;;7.33;6.73;;;21.50;99.90;;;;;;5052836;28;20213;-55
2023/06/23 07:42:06;;;;;;;6.70;6.13;;;21.60;99.90;;;;;;5048709;28;20202;-55
2023/06/23 07:44:33;;;;;;;5.13;4.73;;;21.60;99.90;;;;;;5047301;28;20201;-55
2023/06/23 07:47:00;;;;;;;5.23;4.90;;;21.70;99.90;;;;;;5051632;28;20225;-55
2023/06/23 07:49:29;;;;;;;5.50;5.20;;;21.80;99.90;;;;;;5050100;28;20209;-55
2023/06/23 07:51:59;;;;;;;5.53;5.17;;;21.90;99.90;;;;;;5051744;28;20205;-56
2023/06/23 07:54:28;;;;;;;5.60;5.30;;;22.20;99.90;;;;;;5065487;22;20324;-58
2023/06/23 07:56:55;;;;;;;6.07;5.67;;;22.60;99.90;;;;;;5044414;28;20199;-58
2023/06/23 07:59:22;;;;;;;7.13;5.00;;;22.80;99.90;;;;;;5051126;28;20275;-58
2023/06/23 08:01:49;;;;;;;4.87;4.63;;;23.10;99.90;;;;;;5035876;28;20252;-58
2023/06/23 08:04:16;;;;;;;6.00;5.50;;;23.20;99.90;;;;;;5033800;28;20245;-58
2023/06/23 08:06:44;;;;;;;5.63;5.23;;;23.40;99.90;;;;;;5043118;28;20259;-58
2023/06/23 08:09:11;;;;;;;5.53;5.13;;;23.50;99.90;;;;;;5047606;28;20216;-58
2023/06/23 08:11:39;;;;;;;4.87;4.57;;;23.70;99.90;;;;;;5045438;28;20833;-58
2023/06/23 08:14:06;;;;;;;5.20;4.90;;;24.10;99.90;;;;;;5048431;28;20267;-58
2023/06/23 08:16:33;;;;;;;5.93;5.53;;;24.70;99.90;;;;;;5048600;28;20202;-58
2023/06/23 08:19:00;;;;;;;7.13;6.33;;;24.90;99.90;;;;;;5051068;28;20583;-58
2023/06/23 08:21:27;;;;;;;6.10;5.70;;;25.20;99.90;;;;;;5047645;28;20202;-58
2023/06/23 08:23:56;;;;;;;8.57;7.30;;;25.30;99.90;;;;;;5048556;28;20217;-58
2023/06/23 08:26:23;;;;;;;7.30;6.80;;;25.30;99.90;;;;;;5043809;28;20263;-58
2023/06/23 08:28:50;;;;;;;8.63;7.93;;;24.90;99.90;;;;;;5050790;28;20279;-58
2023/06/23 08:31:17;;;;;;;8.03;7.43;;;24.60;99.90;;;;;;5049578;28;20256;-58
2023/06/23 08:33:44;;;;;;;6.50;6.00;;;24.20;99.90;;;;;;5039602;28;20249;-58
2023/06/23 08:36:11;;;;;;;8.63;7.27;;;24.40;99.90;;;;;;5037308;28;20351;-58
2023/06/23 08:38:38;;;;;;;7.63;6.73;;;25.20;99.90;;;;;;5038924;28;20268;-58
2023/06/23 08:41:07;;;;;;;7.87;7.23;;;25.50;99.90;;;;;;5045311;28;20209;-58
2023/06/23 08:43:36;;;;;;;7.80;7.20;;;25.60;99.90;;;;;;5050524;28;20287;-58
2023/06/23 08:46:05;;;;;;;8.83;8.00;;;25.50;99.90;;;;;;5049097;28;20210;-58
2023/06/23 08:48:32;;;;;;;8.17;7.47;;;25.10;99.90;;;;;;5049679;28;20205;-58
2023/06/23 08:51:01;;;;;;;7.73;7.20;;;24.50;99.90;;;;;;5044566;28;20269;-58
2023/06/23 08:53:29;;;;;;;9.17;8.37;;;24.10;99.90;;;;;;5046742;28;20283;-58
2023/06/23 08:55:56;;;;;;;9.30;8.40;;;23.60;99.90;;;;;;5050392;28;20236;-58
2023/06/23 08:58:26;;;;;;;9.43;8.63;;;22.90;99.90;;;;;;5050422;28;20620;-58
2023/06/23 09:00:54;;;;;;;9.30;8.50;;;22.70;99.90;;;;;;5048479;28;20347;-58
2023/06/23 09:03:22;;;;;;;9.67;8.87;;;22.30;99.90;;;;;;5050164;28;20584;-58
2023/06/23 09:05:50;;;;;;;9.10;8.50;;;22.20;99.90;;;;;;5050634;28;20208;-58
2023/06/23 09:08:17;;;;;;;10.20;9.33;;;22.10;99.90;;;;;;5050470;28;20205;-58
2023/06/23 09:10:45;;;;;;;10.97;9.93;;;22.00;99.90;;;;;;5047144;28;20744;-58
2023/06/23 09:13:19;;;;;;;10.77;9.90;;;21.80;99.90;;;;;;5050269;28;20706;-58
2023/06/23 09:15:49;;;;;;;11.70;10.60;;;21.90;99.90;;;;;;5050771;28;20575;-58
2023/06/23 09:18:16;;;;;;;11.03;10.13;;;21.80;99.90;;;;;;5051368;28;20221;-58
2023/06/23 09:20:45;;;;;;;10.50;9.60;;;21.80;99.90;;;;;;5045193;28;20218;-58
2023/06/23 09:23:16;;;;;;;10.83;9.93;;;21.90;99.90;;;;;;5053977;28;20206;-58
2023/06/23 09:25:45;;;;;;;11.30;10.13;;;22.00;99.90;;;;;;5054678;28;20202;-58
2023/06/23 09:28:23;;;;;;;12.93;11.73;;;22.00;99.90;;;;;;5054551;28;20216;-58
2023/06/23 09:30:52;;;;;;;13.70;12.30;;;21.90;99.90;;;;;;5044940;28;20667;-58
2023/06/23 09:33:20;;;;;;;12.60;11.40;;;22.00;99.90;;;;;;5053867;28;20612;-58
2023/06/23 09:35:51;;;;;;;12.40;11.30;;;22.10;99.90;;;;;;5054408;28;20206;-58
2023/06/23 09:38:19;;;;;;;17.77;11.83;;;22.20;99.90;;;;;;5054528;28;20267;-58
2023/06/23 09:40:46;;;;;;;12.97;11.77;;;22.40;99.90;;;;;;5051330;28;20297;-58
2023/06/23 09:43:15;;;;;;;13.00;11.80;;;22.60;99.90;;;;;;5052934;28;20263;-58
2023/06/23 09:45:43;;;;;;;12.33;10.90;;;22.60;99.90;;;;;;5053996;28;20690;-58
2023/06/23 09:48:18;;;;;;;11.93;10.80;;;22.60;99.90;;;;;;5054153;28;20205;-58
2023/06/23 09:50:46;;;;;;;12.52;11.43;;;22.80;99.90;;;;;;5049624;28;20875;-62
2023/06/23 09:53:21;;;;;;;11.80;10.70;;;23.10;99.90;;;;;;5052726;28;20279;-65
2023/06/23 09:55:49;;;;;;;10.33;9.53;;;23.20;99.90;;;;;;5053796;28;20201;-62
2023/06/23 09:58:17;;;;;;;12.00;11.00;;;23.30;99.90;;;;;;5053439;28;20699;-62
2023/06/23 10:00:44;;;;;;;13.03;11.93;;;23.10;99.90;;;;;;5050804;28;20304;-63
2023/06/23 10:03:12;;;;;;;12.20;11.03;;;23.10;99.90;;;;;;5052073;28;20202;-63
2023/06/23 10:05:40;;;;;;;11.90;10.80;;;23.00;99.90;;;;;;5049467;28;20198;-62
2023/06/23 10:08:12;;;;;;;13.27;12.07;;;23.00;99.90;;;;;;5033501;28;20206;-62
2023/06/23 10:10:46;;;;;;;12.97;11.70;;;22.90;99.90;;;;;;5039089;28;20207;-63
2023/06/23 10:13:14;;;;;;;15.37;13.87;;;22.80;99.90;;;;;;5043657;28;20206;-63
2023/06/23 10:15:43;;;;;;;17.33;14.73;;;22.60;99.90;;;;;;5053545;28;20343;-58
2023/06/23 10:18:11;;;;;;;12.80;11.60;;;22.30;99.90;;;;;;5053262;28;20260;-58
2023/06/23 10:20:40;;;;;;;16.73;15.23;;;22.30;99.90;;;;;;5044515;28;20317;-70
2023/06/23 10:23:07;;;;;;;15.10;13.83;;;22.50;99.90;;;;;;5052763;28;20694;-67
2023/06/23 10:25:37;;;;;;;12.43;11.23;;;22.80;99.90;;;;;;5051580;28;20202;-66
2023/06/23 10:28:14;;;;;;;13.57;12.17;;;23.00;99.90;;;;;;5053117;28;20300;-69
2023/06/23 10:30:43;;;;;;;12.97;11.67;;;23.30;99.90;;;;;;5043911;28;20202;-65
2023/06/23 10:33:14;;;;;;;13.63;12.40;;;24.30;99.90;;;;;;5045055;28;20289;-58
2023/06/23 10:35:44;;;;;;;11.60;10.47;;;25.40;99.90;;;;;;5053134;28;20232;-58
2023/06/23 10:38:14;;;;;;;12.03;10.83;;;26.20;99.90;;;;;;5050790;28;20202;-58
2023/06/23 10:40:45;;;;;;;11.27;10.13;;;26.30;99.90;;;;;;5049136;28;20218;-58
2023/06/23 10:43:13;;;;;;;12.77;11.60;;;26.00;99.90;;;;;;5046290;28;20283;-58
2023/06/23 10:45:41;;;;;;;13.30;12.10;;;26.00;99.90;;;;;;5052925;28;20201;-66
2023/06/23 10:48:08;;;;;;;12.70;11.40;;;25.50;99.90;;;;;;5032844;28;20210;-66
2023/06/23 10:50:38;;;;;;;14.93;13.50;;;25.40;99.90;;;;;;5038048;28;20290;-69
2023/06/23 10:53:16;;;;;;;11.67;10.60;;;24.70;99.90;;;;;;5051628;28;20210;-69
2023/06/23 10:55:44;;;;;;;12.20;11.10;;;24.10;99.90;;;;;;5052730;28;20212;-67
2023/06/23 10:58:14;;;;;;;13.77;11.30;;;23.70;99.90;;;;;;5052353;28;20263;-69
2023/06/23 11:00:46;;;;;;;10.83;9.93;;;23.30;99.90;;;;;;5043573;28;20222;-72
2023/06/23 11:03:27;;;;;;;12.53;11.43;;;23.00;99.90;;;;;;5044980;28;20205;-73
2023/06/23 11:05:55;;;;;;;12.93;11.73;;;23.00;99.90;;;;;;5052827;28;20617;-72
2023/06/23 11:08:32;;;;;;;13.30;11.40;;;22.90;99.90;;;;;;5052506;28;20292;-60
2023/06/23 11:11:01;;;;;;;11.27;10.10;;;22.80;99.90;;;;;;5049723;28;20244;-62
2023/06/23 11:13:41;;;;;;;12.87;11.67;;;22.80;99.90;;;;;;5051884;28;20279;-63
2023/06/23 11:16:14;;;;;;;11.97;10.77;;;23.20;99.90;;;;;;5051766;28;20208;-63
2023/06/23 11:18:52;;;;;;;11.27;10.23;;;23.50;99.90;;;;;;5052680;28;20202;-63
2023/06/23 11:21:21;;;;;;;12.87;11.67;;;23.70;99.90;;;;;;5053439;28;20591;-63
2023/06/23 11:24:12;;;;;;;13.97;12.67;;;23.70;99.90;;;;;;5063217;28;20734;-63
2023/06/23 11:26:44;;;;;;;12.10;10.83;;;23.50;99.90;;;;;;5056406;28;20748;-63
2023/06/23 11:29:13;;;;;;;13.20;12.00;;;23.70;99.90;;;;;;5056961;28;20198;-63
2023/06/23 11:32:03;;;;;;;11.33;10.23;;;23.80;99.90;;;;;;5048769;28;20645;-63
2023/06/23 11:34:30;;;;;;;10.87;9.83;;;24.60;99.90;;;;;;5048150;28;20304;-62
2023/06/23 11:36:58;;;;;;;15.20;13.30;;;25.00;99.90;;;;;;5055043;28;20204;-63
2023/06/23 11:39:27;;;;;;;12.87;11.67;;;25.00;99.90;;;;;;5068715;28;20266;-63
2023/06/23 11:41:57;;;;;;;12.90;11.83;;;24.60;99.90;;;;;;5063033;28;20227;-63
2023/06/23 11:44:24;;;;;;;12.80;11.63;;;24.20;99.90;;;;;;5071883;28;20278;-63
2023/06/23 11:46:53;;;;;;;11.90;10.80;;;23.90;99.90;;;;;;5055443;28;20194;-62
2023/06/23 11:49:20;;;;;;;10.63;9.53;;;23.60;99.90;;;;;;5051600;28;20285;-63
2023/06/23 11:51:47;;;;;;;12.23;11.13;;;23.60;99.90;;;;;;5056540;28;20281;-62
2023/06/23 11:54:15;;;;;;;10.60;9.77;;;23.40;99.90;;;;;;5067020;28;20313;-63
2023/06/23 11:56:44;;;;;;;12.07;11.07;;;23.30;99.90;;;;;;5043426;28;20195;-63
2023/06/23 11:59:12;;;;;;;11.53;10.43;;;23.30;99.90;;;;;;5031777;28;20234;-62
2023/06/23 12:01:40;;;;;;;11.70;10.70;;;23.30;99.90;;;;;;5040801;28;20222;-63
2023/06/23 12:04:07;;;;;;;11.33;10.23;;;23.50;99.90;;;;;;5046904;28;20664;-62
2023/06/23 12:06:37;;;;;;;10.77;9.77;;;23.60;99.90;;;;;;5047745;28;20845;-62
2023/06/23 12:09:08;;;;;;;12.13;10.93;;;23.70;99.90;;;;;;5041324;28;20277;-62
2023/06/23 12:11:37;;;;;;;12.63;11.40;;;23.90;99.90;;;;;;5041864;28;20195;-63
2023/06/23 12:14:05;;;;;;;11.83;10.63;;;23.90;99.90;;;;;;5036303;28;20259;-63
2023/06/23 12:16:37;;;;;;;11.30;10.30;;;24.10;99.90;;;;;;5061562;28;20197;-63
2023/06/23 12:19:04;;;;;;;11.00;9.90;;;24.40;99.90;;;;;;5050475;28;20671;-63
2023/06/23 12:21:32;;;;;;;12.53;11.53;;;24.60;99.90;;;;;;5061875;28;20225;-63
2023/06/23 12:24:00;;;;;;;10.20;9.33;;;24.60;99.90;;;;;;5049567;28;20607;-63
2023/06/23 12:26:27;;;;;;;12.63;11.60;;;24.70;99.90;;;;;;5050485;28;20301;-63
2023/06/23 12:29:09;;;;;;;12.47;11.37;;;24.70;99.90;;;;;;5050555;28;20198;-63
2023/06/23 12:31:37;;;;;;;13.23;11.93;;;24.50;99.90;;;;;;5041482;28;20190;-62
2023/06/23 12:34:04;;;;;;;12.80;11.20;;;24.40;99.90;;;;;;5041933;28;20271;-62
2023/06/23 12:36:32;;;;;;;8.70;8.00;;;24.00;99.90;;;;;;5041779;28;20263;-63
2023/06/23 12:39:00;;;;;;;8.67;7.97;;;23.50;99.90;;;;;;5040075;28;20268;-63
2023/06/23 12:41:29;;;;;;;7.57;6.97;;;23.30;99.90;;;;;;5041214;28;20217;-62
2023/06/23 12:43:58;;;;;;;7.73;7.13;;;23.30;99.90;;;;;;5040001;28;20610;-63
2023/06/23 12:46:28;;;;;;;7.83;7.13;;;23.30;99.90;;;;;;5042016;28;20341;-63
2023/06/23 12:48:55;;;;;;;7.90;6.80;;;23.00;99.90;;;;;;5040971;28;20297;-62
2023/06/23 12:51:32;;;;;;;7.77;7.07;;;23.20;99.90;;;;;;5041346;28;20194;-61
2023/06/23 12:54:00;;;;;;;12.67;7.77;;;23.30;99.90;;;;;;5040030;28;20318;-62